sensor_id;sensor_type;location;lat;lon;timestamp;pressure;altitude;pressure_sealevel;temperature;humidity
37764;BME280;23602;51.084;7.090;2023-04-21T00:01:26;99985.97;;;7.12;100.00
37764;BME280;23602;51.084;7.090;2023-04-21T00:03:53;99985.97;;;7.12;100.00
37764;BME280;23602;51.084;7.090;2023-04-21T00:06:19;99994.22;;;7.11;100.00
37764;BME280;23602;51.084;7.090;2023-04-21T00:08:46;99994.22;;;7.11;100.00
37764;BME280;23602;51.084;7.090;2023-04-21T00:11:11;99990.13;;;7.15;100.00
37764;BME280;23602;51.084;7.090;2023-04-21T00:13:39;99975.75;;;7.16;100.00
37764;BME280;23602;51.084;7.090;2023-04-21T00:16:04;99965.91;;;7.16;100.00
37764;BME280;23602;51.084;7.090;2023-04-21T00:18:30;99974.28;;;7.13;100.00
37764;BME280;23602;51.084;7.090;2023-04-21T00:20:55;99983.31;;;7.12;100.00
37764;BME280;23602;51.084;7.090;2023-04-21T00:23:20;99975.97;;;7.14;100.00
37764;BME280;23602;51.084;7.090;2023-04-21T00:25:46;99979.44;;;7.15;100.00
37764;BME280;23602;51.084;7.090;2023-04-21T00:28:11;99964.81;;;7.11;100.00
37764;BME280;23602;51.084;7.090;2023-04-21T00:30:36;99964.59;;;7.12;100.00
37764;BME280;23602;51.084;7.090;2023-04-21T00:33:02;99977.34;;;7.10;100.00
37764;BME280;23602;51.084;7.090;2023-04-21T00:35:27;99979.19;;;7.10;100.00
37764;BME280;23602;51.084;7.090;2023-04-21T00:37:52;99966.84;;;7.09;100.00
37764;BME280;23602;51.084;7.090;2023-04-21T00:40:18;99968.69;;;7.08;100.00
37764;BME280;23602;51.084;7.090;2023-04-21T00:42:43;99972.38;;;7.07;100.00
37764;BME280;23602;51.084;7.090;2023-04-21T00:45:09;99971.38;;;7.08;100.00
37764;BME280;23602;51.084;7.090;2023-04-21T00:47:34;99965.81;;;7.10;100.00
37764;BME280;23602;51.084;7.090;2023-04-21T00:49:59;99970.75;;;7.06;100.00
37764;BME280;23602;51.084;7.090;2023-04-21T00:52:29;99957.81;;;7.10;100.00
37764;BME280;23602;51.084;7.090;2023-04-21T00:54:54;99969.16;;;7.12;100.00
37764;BME280;23602;51.084;7.090;2023-04-21T00:57:20;99969.31;;;7.10;100.00
37764;BME280;23602;51.084;7.090;2023-04-21T00:59:45;99967.47;;;7.11;100.00
37764;BME280;23602;51.084;7.090;2023-04-21T01:02:11;99946.94;;;7.11;100.00
37764;BME280;23602;51.084;7.090;2023-04-21T01:04:36;99952.28;;;7.11;100.00
37764;BME280;23602;51.084;7.090;2023-04-21T01:07:04;99952.53;;;7.16;100.00
37764;BME280;23602;51.084;7.090;2023-04-21T01:09:29;99956.84;;;7.17;100.00
37764;BME280;23602;51.084;7.090;2023-04-21T01:12:01;99951.31;;;7.19;100.00
37764;BME280;23602;51.084;7.090;2023-04-21T01:14:27;99952.34;;;7.18;100.00
37764;BME280;23602;51.084;7.090;2023-04-21T01:16:53;99954.16;;;7.17;100.00
37764;BME280;23602;51.084;7.090;2023-04-21T01:19:18;99954.38;;;7.16;100.00
37764;BME280;23602;51.084;7.090;2023-04-21T01:21:44;99958.88;;;7.15;100.00
37764;BME280;23602;51.084;7.090;2023-04-21T01:24:09;99956.03;;;7.17;100.00
37764;BME280;23602;51.084;7.090;2023-04-21T01:26:35;99962.41;;;7.16;100.00
37764;BME280;23602;51.084;7.090;2023-04-21T01:29:01;99957.88;;;7.16;100.00
37764;BME280;23602;51.084;7.090;2023-04-21T01:31:26;99968.75;;;7.15;100.00
37764;BME280;23602;51.084;7.090;2023-04-21T01:33:52;99983.56;;;7.17;100.00
37764;BME280;23602;51.084;7.090;2023-04-21T01:36:19;99974.91;;;7.15;100.00
37764;BME280;23602;51.084;7.090;2023-04-21T01:38:45;99989.75;;;7.18;100.00
37764;BME280;23602;51.084;7.090;2023-04-21T01:41:10;99989.38;;;7.21;100.00
37764;BME280;23602;51.084;7.090;2023-04-21T01:43:35;99989.38;;;7.21;100.00
37764;BME280;23602;51.084;7.090;2023-04-21T01:46:01;99983.00;;;7.22;100.00
37764;BME280;23602;51.084;7.090;2023-04-21T01:48:26;99991.06;;;7.28;100.00
37764;BME280;23602;51.084;7.090;2023-04-21T01:50:52;99984.47;;;7.24;100.00
37764;BME280;23602;51.084;7.090;2023-04-21T01:53:17;99996.38;;;7.22;100.00
37764;BME280;23602;51.084;7.090;2023-04-21T01:55:42;99992.28;;;7.26;100.00
37764;BME280;23602;51.084;7.090;2023-04-21T01:58:08;99991.47;;;7.25;100.00
37764;BME280;23602;51.084;7.090;2023-04-21T02:00:33;100002.34;;;7.24;100.00
37764;BME280;23602;51.084;7.090;2023-04-21T02:02:59;100007.94;;;7.29;100.00
37764;BME280;23602;51.084;7.090;2023-04-21T02:05:24;100002.59;;;7.29;100.00
37764;BME280;23602;51.084;7.090;2023-04-21T02:07:50;100002.16;;;7.25;100.00
37764;BME280;23602;51.084;7.090;2023-04-21T02:10:15;100013.66;;;7.26;100.00
37764;BME280;23602;51.084;7.090;2023-04-21T02:12:40;100006.47;;;7.26;100.00
37764;BME280;23602;51.084;7.090;2023-04-21T02:15:06;100009.78;;;7.28;100.00
37764;BME280;23602;51.084;7.090;2023-04-21T02:17:31;100000.75;;;7.29;100.00
37764;BME280;23602;51.084;7.090;2023-04-21T02:19:57;99995.84;;;7.33;100.00
37764;BME280;23602;51.084;7.090;2023-04-21T02:22:23;99990.69;;;7.31;100.00
37764;BME280;23602;51.084;7.090;2023-04-21T02:24:49;99980.19;;;7.30;100.00
37764;BME280;23602;51.084;7.090;2023-04-21T02:27:14;99981.22;;;7.29;100.00
37764;BME280;23602;51.084;7.090;2023-04-21T02:29:40;99982.44;;;7.26;100.00
37764;BME280;23602;51.084;7.090;2023-04-21T02:32:05;99973.97;;;7.23;100.00
37764;BME280;23602;51.084;7.090;2023-04-21T02:34:31;99979.50;;;7.21;100.00
37764;BME280;23602;51.084;7.090;2023-04-21T02:36:57;99978.03;;;7.19;100.00
37764;BME280;23602;51.084;7.090;2023-04-21T02:39:23;99972.44;;;7.14;100.00
37764;BME280;23602;51.084;7.090;2023-04-21T02:41:49;99974.03;;;7.08;100.00
37764;BME280;23602;51.084;7.090;2023-04-21T02:44:14;99965.97;;;7.02;100.00
37764;BME280;23602;51.084;7.090;2023-04-21T02:46:40;99978.50;;;7.01;100.00
37764;BME280;23602;51.084;7.090;2023-04-21T02:49:05;99968.38;;;6.96;100.00
37764;BME280;23602;51.084;7.090;2023-04-21T02:51:33;99979.44;;;6.93;100.00
37764;BME280;23602;51.084;7.090;2023-04-21T02:53:59;99972.81;;;6.89;100.00
37764;BME280;23602;51.084;7.090;2023-04-21T02:56:24;99975.84;;;6.86;100.00
37764;BME280;23602;51.084;7.090;2023-04-21T02:58:50;99969.88;;;6.84;100.00
37764;BME280;23602;51.084;7.090;2023-04-21T03:01:15;99974.59;;;6.82;100.00
37764;BME280;23602;51.084;7.090;2023-04-21T03:03:40;99973.97;;;6.80;100.00
37764;BME280;23602;51.084;7.090;2023-04-21T03:06:06;99979.47;;;6.79;100.00
37764;BME280;23602;51.084;7.090;2023-04-21T03:08:42;99978.69;;;6.78;100.00
37764;BME280;23602;51.084;7.090;2023-04-21T03:11:10;99976.00;;;6.78;100.00
37764;BME280;23602;51.084;7.090;2023-04-21T03:13:36;99986.84;;;6.77;100.00
37764;BME280;23602;51.084;7.090;2023-04-21T03:16:01;99981.09;;;6.73;100.00
37764;BME280;23602;51.084;7.090;2023-04-21T03:18:27;99984.13;;;6.70;100.00
37764;BME280;23602;51.084;7.090;2023-04-21T03:20:57;99983.28;;;6.70;100.00
37764;BME280;23602;51.084;7.090;2023-04-21T03:23:23;99989.22;;;6.65;100.00
37764;BME280;23602;51.084;7.090;2023-04-21T03:25:48;99988.75;;;6.62;100.00
37764;BME280;23602;51.084;7.090;2023-04-21T03:28:14;99989.56;;;6.62;100.00
37764;BME280;23602;51.084;7.090;2023-04-21T03:30:43;99992.88;;;6.64;100.00
37764;BME280;23602;51.084;7.090;2023-04-21T03:33:08;99991.25;;;6.63;100.00
37764;BME280;23602;51.084;7.090;2023-04-21T03:35:34;99990.84;;;6.66;100.00
37764;BME280;23602;51.084;7.090;2023-04-21T03:37:59;99984.69;;;6.66;100.00
37764;BME280;23602;51.084;7.090;2023-04-21T03:40:25;99983.88;;;6.65;100.00
37764;BME280;23602;51.084;7.090;2023-04-21T03:42:50;99976.03;;;6.64;100.00
37764;BME280;23602;51.084;7.090;2023-04-21T03:45:15;99979.25;;;6.59;100.00
37764;BME280;23602;51.084;7.090;2023-04-21T03:47:46;99982.78;;;6.60;100.00
37764;BME280;23602;51.084;7.090;2023-04-21T03:50:12;99969.41;;;6.60;100.00
37764;BME280;23602;51.084;7.090;2023-04-21T03:52:47;99974.28;;;6.56;100.00
37764;BME280;23602;51.084;7.090;2023-04-21T03:55:13;99970.00;;;6.55;100.00
37764;BME280;23602;51.084;7.090;2023-04-21T03:57:41;99967.31;;;6.55;100.00
37764;BME280;23602;51.084;7.090;2023-04-21T04:00:06;99966.84;;;6.52;100.00
37764;BME280;23602;51.084;7.090;2023-04-21T04:02:34;99968.91;;;6.50;100.00
37764;BME280;23602;51.084;7.090;2023-04-21T04:04:59;99964.97;;;6.46;100.00
37764;BME280;23602;51.084;7.090;2023-04-21T04:07:24;99963.50;;;6.43;100.00
37764;BME280;23602;51.084;7.090;2023-04-21T04:09:50;99957.69;;;6.40;100.00
37764;BME280;23602;51.084;7.090;2023-04-21T04:12:18;99960.09;;;6.34;100.00
37764;BME280;23602;51.084;7.090;2023-04-21T04:14:43;99959.25;;;6.34;100.00
37764;BME280;23602;51.084;7.090;2023-04-21T04:17:09;99954.94;;;6.33;100.00
37764;BME280;23602;51.084;7.090;2023-04-21T04:19:34;99953.47;;;6.30;100.00
37764;BME280;23602;51.084;7.090;2023-04-21T04:22:00;99961.47;;;6.30;100.00
37764;BME280;23602;51.084;7.090;2023-04-21T04:24:26;99960.00;;;6.28;100.00
37764;BME280;23602;51.084;7.090;2023-04-21T04:26:51;99955.84;;;6.25;100.00
37764;BME280;23602;51.084;7.090;2023-04-21T04:29:21;99963.69;;;6.27;100.00
37764;BME280;23602;51.084;7.090;2023-04-21T04:31:48;99960.38;;;6.25;100.00
37764;BME280;23602;51.084;7.090;2023-04-21T04:34:13;99959.91;;;6.21;100.00
37764;BME280;23602;51.084;7.090;2023-04-21T04:36:39;99959.09;;;6.21;100.00
37764;BME280;23602;51.084;7.090;2023-04-21T04:39:06;99962.13;;;6.18;100.00
37764;BME280;23602;51.084;7.090;2023-04-21T04:41:32;99963.16;;;6.17;100.00
37764;BME280;23602;51.084;7.090;2023-04-21T04:43:58;99967.09;;;6.21;100.00
37764;BME280;23602;51.084;7.090;2023-04-21T04:46:23;99966.09;;;6.22;100.00
37764;BME280;23602;51.084;7.090;2023-04-21T04:48:49;99958.91;;;6.22;100.00
37764;BME280;23602;51.084;7.090;2023-04-21T04:51:15;99961.59;;;6.22;100.00
37764;BME280;23602;51.084;7.090;2023-04-21T04:53:41;99954.38;;;6.23;100.00
37764;BME280;23602;51.084;7.090;2023-04-21T04:56:06;99952.38;;;6.25;100.00
37764;BME280;23602;51.084;7.090;2023-04-21T04:58:31;99965.31;;;6.28;100.00
37764;BME280;23602;51.084;7.090;2023-04-21T05:00:57;99967.00;;;6.29;100.00
37764;BME280;23602;51.084;7.090;2023-04-21T05:03:22;99970.31;;;6.31;100.00
37764;BME280;23602;51.084;7.090;2023-04-21T05:05:48;99965.44;;;6.34;100.00
37764;BME280;23602;51.084;7.090;2023-04-21T05:08:13;99967.00;;;6.29;100.00
37764;BME280;23602;51.084;7.090;2023-04-21T05:10:39;99967.81;;;6.29;100.00
37764;BME280;23602;51.084;7.090;2023-04-21T05:13:04;99971.13;;;6.31;100.00
37764;BME280;23602;51.084;7.090;2023-04-21T05:15:30;99966.78;;;6.30;100.00
37764;BME280;23602;51.084;7.090;2023-04-21T05:17:56;99964.13;;;6.30;100.00
37764;BME280;23602;51.084;7.090;2023-04-21T05:20:21;99972.44;;;6.35;100.00
37764;BME280;23602;51.084;7.090;2023-04-21T05:22:49;99986.84;;;6.41;100.00
37764;BME280;23602;51.084;7.090;2023-04-21T05:25:15;99980.41;;;6.50;100.00
37764;BME280;23602;51.084;7.090;2023-04-21T05:27:41;99975.13;;;6.57;100.00
37764;BME280;23602;51.084;7.090;2023-04-21T05:30:09;99969.88;;;6.63;100.00
37764;BME280;23602;51.084;7.090;2023-04-21T05:32:34;99973.19;;;6.65;100.00
37764;BME280;23602;51.084;7.090;2023-04-21T05:35:00;99969.88;;;6.63;100.00
37764;BME280;23602;51.084;7.090;2023-04-21T05:37:25;99976.03;;;6.64;100.00
37764;BME280;23602;51.084;7.090;2023-04-21T05:39:51;99982.19;;;6.64;100.00
37764;BME280;23602;51.084;7.090;2023-04-21T05:42:16;99969.47;;;6.66;100.00
37764;BME280;23602;51.084;7.090;2023-04-21T05:44:45;99975.66;;;6.67;100.00
37764;BME280;23602;51.084;7.090;2023-04-21T05:47:11;99967.47;;;6.68;100.00
37764;BME280;23602;51.084;7.090;2023-04-21T05:49:36;99966.28;;;6.71;100.00
37764;BME280;23602;51.084;7.090;2023-04-21T05:52:02;99956.38;;;6.71;100.00
37764;BME280;23602;51.084;7.090;2023-04-21T05:54:28;99954.75;;;6.70;100.00
37764;BME280;23602;51.084;7.090;2023-04-21T05:56:53;99960.09;;;6.70;100.00
37764;BME280;23602;51.084;7.090;2023-04-21T05:59:21;99961.72;;;6.71;100.00
37764;BME280;23602;51.084;7.090;2023-04-21T06:01:47;99963.44;;;6.79;100.00
37764;BME280;23602;51.084;7.090;2023-04-21T06:04:12;99964.75;;;6.83;100.00
37764;BME280;23602;51.084;7.090;2023-04-21T06:06:38;99963.34;;;6.87;100.00
37764;BME280;23602;51.084;7.090;2023-04-21T06:09:04;99958.81;;;6.87;100.00
37764;BME280;23602;51.084;7.090;2023-04-21T06:11:30;99957.25;;;6.93;100.00
37764;BME280;23602;51.084;7.090;2023-04-21T06:13:57;99956.09;;;7.02;100.00
37764;BME280;23602;51.084;7.090;2023-04-21T06:16:23;99953.66;;;7.07;100.00
37764;BME280;23602;51.084;7.090;2023-04-21T06:18:49;99949.03;;;7.16;100.00
37764;BME280;23602;51.084;7.090;2023-04-21T06:21:14;99941.25;;;7.21;100.00
37764;BME280;23602;51.084;7.090;2023-04-21T06:23:40;99940.75;;;7.32;100.00
37764;BME280;23602;51.084;7.090;2023-04-21T06:26:07;99938.75;;;7.40;100.00
37764;BME280;23602;51.084;7.090;2023-04-21T06:28:33;99935.53;;;7.51;100.00
37764;BME280;23602;51.084;7.090;2023-04-21T06:31:02;99943.03;;;7.62;100.00
37764;BME280;23602;51.084;7.090;2023-04-21T06:33:27;99937.34;;;7.72;100.00
37764;BME280;23602;51.084;7.090;2023-04-21T06:35:53;99938.19;;;7.79;100.00
37764;BME280;23602;51.084;7.090;2023-04-21T06:38:19;99939.06;;;7.86;100.00
37764;BME280;23602;51.084;7.090;2023-04-21T06:40:44;99931.69;;;7.95;100.00
37764;BME280;23602;51.084;7.090;2023-04-21T06:43:10;99933.38;;;8.02;100.00
37764;BME280;23602;51.084;7.090;2023-04-21T06:45:38;99927.47;;;8.13;100.00
37764;BME280;23602;51.084;7.090;2023-04-21T06:48:04;99924.88;;;8.26;100.00
37764;BME280;23602;51.084;7.090;2023-04-21T06:50:29;99922.84;;;8.35;100.00
37764;BME280;23602;51.084;7.090;2023-04-21T06:52:55;99916.09;;;8.46;100.00
37764;BME280;23602;51.084;7.090;2023-04-21T06:55:20;99909.91;;;8.52;100.00
37764;BME280;23602;51.084;7.090;2023-04-21T06:57:49;99910.78;;;8.59;100.00
37764;BME280;23602;51.084;7.090;2023-04-21T07:00:14;99912.06;;;8.69;100.00
37764;BME280;23602;51.084;7.090;2023-04-21T07:02:43;99910.59;;;8.80;100.00
37764;BME280;23602;51.084;7.090;2023-04-21T07:05:11;99903.00;;;8.90;100.00
37764;BME280;23602;51.084;7.090;2023-04-21T07:07:36;99915.19;;;8.99;100.00
37764;BME280;23602;51.084;7.090;2023-04-21T07:10:04;99919.91;;;9.10;100.00
37764;BME280;23602;51.084;7.090;2023-04-21T07:12:30;99915.78;;;9.21;100.00
37764;BME280;23602;51.084;7.090;2023-04-21T07:14:55;99915.81;;;9.27;100.00
37764;BME280;23602;51.084;7.090;2023-04-21T07:17:20;99905.06;;;9.34;100.00
37764;BME280;23602;51.084;7.090;2023-04-21T07:19:46;99903.84;;;9.43;100.00
37764;BME280;23602;51.084;7.090;2023-04-21T07:22:11;99897.44;;;9.50;100.00
37764;BME280;23602;51.084;7.090;2023-04-21T07:24:37;99898.88;;;9.53;100.00
37764;BME280;23602;51.084;7.090;2023-04-21T07:27:03;99900.94;;;9.58;100.00
37764;BME280;23602;51.084;7.090;2023-04-21T07:29:28;99906.69;;;9.68;100.00
37764;BME280;23602;51.084;7.090;2023-04-21T07:31:54;99904.19;;;9.73;100.00
37764;BME280;23602;51.084;7.090;2023-04-21T07:34:22;99901.72;;;9.78;100.00
37764;BME280;23602;51.084;7.090;2023-04-21T07:36:48;99900.03;;;9.77;100.00
37764;BME280;23602;51.084;7.090;2023-04-21T07:39:16;99894.06;;;9.75;100.00
37764;BME280;23602;51.084;7.090;2023-04-21T07:41:42;99890.97;;;9.78;100.00
37764;BME280;23602;51.084;7.090;2023-04-21T07:44:07;99891.97;;;9.90;100.00
37764;BME280;23602;51.084;7.090;2023-04-21T07:46:35;99893.78;;;10.02;100.00
37764;BME280;23602;51.084;7.090;2023-04-21T07:49:00;99894.59;;;10.16;100.00
37764;BME280;23602;51.084;7.090;2023-04-21T07:51:26;99893.53;;;10.24;100.00
37764;BME280;23602;51.084;7.090;2023-04-21T07:53:55;99890.19;;;10.35;100.00
37764;BME280;23602;51.084;7.090;2023-04-21T07:56:20;99885.78;;;10.47;100.00
37764;BME280;23602;51.084;7.090;2023-04-21T07:58:46;99884.88;;;10.59;100.00
37764;BME280;23602;51.084;7.090;2023-04-21T08:01:11;99884.88;;;10.59;100.00
37764;BME280;23602;51.084;7.090;2023-04-21T08:03:37;99890.59;;;10.69;100.00
37764;BME280;23602;51.084;7.090;2023-04-21T08:06:02;99887.69;;;10.71;100.00
37764;BME280;23602;51.084;7.090;2023-04-21T08:08:33;99889.09;;;10.80;100.00
37764;BME280;23602;51.084;7.090;2023-04-21T08:10:59;99880.97;;;10.87;100.00
37764;BME280;23602;51.084;7.090;2023-04-21T08:13:32;99868.91;;;10.96;100.00
37764;BME280;23602;51.084;7.090;2023-04-21T08:16:00;99861.38;;;11.29;100.00
37764;BME280;23602;51.084;7.090;2023-04-21T08:18:25;99855.66;;;11.43;100.00
37764;BME280;23602;51.084;7.090;2023-04-21T08:20:59;99844.28;;;11.60;100.00
37764;BME280;23602;51.084;7.090;2023-04-21T08:23:24;99852.59;;;11.58;100.00
37764;BME280;23602;51.084;7.090;2023-04-21T08:25:52;99844.25;;;11.66;100.00
37764;BME280;23602;51.084;7.090;2023-04-21T08:28:20;99837.72;;;11.56;100.00
37764;BME280;23602;51.084;7.090;2023-04-21T08:30:53;99841.53;;;11.48;100.00
37764;BME280;23602;51.084;7.090;2023-04-21T08:33:28;99852.31;;;11.48;100.00
37764;BME280;23602;51.084;7.090;2023-04-21T08:35:53;99856.94;;;11.41;100.00
37764;BME280;23602;51.084;7.090;2023-04-21T08:38:21;99858.34;;;11.43;100.00
37764;BME280;23602;51.084;7.090;2023-04-21T08:40:47;99859.91;;;11.33;100.00
37764;BME280;23602;51.084;7.090;2023-04-21T08:43:13;99848.22;;;11.21;100.00
37764;BME280;23602;51.084;7.090;2023-04-21T08:45:39;99860.28;;;11.12;100.00
37764;BME280;23602;51.084;7.090;2023-04-21T08:48:05;99872.09;;;11.11;100.00
37764;BME280;23602;51.084;7.090;2023-04-21T08:50:31;99855.81;;;11.06;100.00
37764;BME280;23602;51.084;7.090;2023-04-21T08:52:58;99856.25;;;11.03;100.00
37764;BME280;23602;51.084;7.090;2023-04-21T08:55:29;99858.03;;;11.09;100.00
37764;BME280;23602;51.084;7.090;2023-04-21T08:57:55;99868.63;;;11.04;100.00
37764;BME280;23602;51.084;7.090;2023-04-21T09:00:21;99872.56;;;11.01;100.00
37764;BME280;23602;51.084;7.090;2023-04-21T09:05:24;99877.81;;;11.21;100.00
37764;BME280;23602;51.084;7.090;2023-04-21T09:08:07;99878.28;;;11.36;100.00
37764;BME280;23602;51.084;7.090;2023-04-21T09:10:42;99883.31;;;11.93;100.00
37764;BME280;23602;51.084;7.090;2023-04-21T09:13:11;99857.22;;;12.42;100.00
37764;BME280;23602;51.084;7.090;2023-04-21T09:15:37;99847.59;;;12.76;100.00
37764;BME280;23602;51.084;7.090;2023-04-21T09:18:03;99843.28;;;12.86;100.00
37764;BME280;23602;51.084;7.090;2023-04-21T09:20:38;99832.25;;;12.99;100.00
37764;BME280;23602;51.084;7.090;2023-04-21T09:23:04;99846.41;;;13.13;100.00
37764;BME280;23602;51.084;7.090;2023-04-21T09:25:30;99825.19;;;12.75;100.00
37764;BME280;23602;51.084;7.090;2023-04-21T09:27:59;99833.78;;;12.42;100.00
37764;BME280;23602;51.084;7.090;2023-04-21T09:30:24;99839.41;;;12.82;100.00
37764;BME280;23602;51.084;7.090;2023-04-21T09:32:50;99833.53;;;12.85;100.00
37764;BME280;23602;51.084;7.090;2023-04-21T09:35:20;99825.19;;;12.75;100.00
37764;BME280;23602;51.084;7.090;2023-04-21T09:37:46;99825.22;;;12.87;100.00
37764;BME280;23602;51.084;7.090;2023-04-21T09:40:12;99827.16;;;13.32;100.00
37764;BME280;23602;51.084;7.090;2023-04-21T09:42:38;99814.50;;;13.33;100.00
37764;BME280;23602;51.084;7.090;2023-04-21T09:45:03;99797.59;;;13.49;100.00
37764;BME280;23602;51.084;7.090;2023-04-21T09:47:30;99792.69;;;13.86;100.00
37764;BME280;23602;51.084;7.090;2023-04-21T09:50:03;99795.41;;;14.14;100.00
37764;BME280;23602;51.084;7.090;2023-04-21T09:52:30;99791.59;;;14.38;100.00
37764;BME280;23602;51.084;7.090;2023-04-21T09:54:59;99791.28;;;14.51;100.00
37764;BME280;23602;51.084;7.090;2023-04-21T09:57:26;99779.38;;;14.52;100.00
37764;BME280;23602;51.084;7.090;2023-04-21T09:59:55;99784.22;;;14.50;100.00
37764;BME280;23602;51.084;7.090;2023-04-21T10:02:23;99777.97;;;14.33;100.00
37764;BME280;23602;51.084;7.090;2023-04-21T10:04:49;99787.00;;;14.39;100.00
37764;BME280;23602;51.084;7.090;2023-04-21T10:07:15;99778.53;;;14.07;100.00
37764;BME280;23602;51.084;7.090;2023-04-21T10:09:42;99772.75;;;14.43;100.00
37764;BME280;23602;51.084;7.090;2023-04-21T10:12:09;99780.03;;;14.43;100.00
37764;BME280;23602;51.084;7.090;2023-04-21T10:14:37;99782.75;;;14.43;100.00
37764;BME280;23602;51.084;7.090;2023-04-21T10:17:03;99780.47;;;14.23;100.00
37764;BME280;23602;51.084;7.090;2023-04-21T10:19:29;99775.63;;;14.53;100.00
37764;BME280;23602;51.084;7.090;2023-04-21T10:22:00;99753.03;;;15.31;100.00
37764;BME280;23602;51.084;7.090;2023-04-21T10:24:29;99739.94;;;15.83;100.00
37764;BME280;23602;51.084;7.090;2023-04-21T10:26:55;99740.91;;;15.99;100.00
37764;BME280;23602;51.084;7.090;2023-04-21T10:29:30;99743.25;;;16.43;100.00
37764;BME280;23602;51.084;7.090;2023-04-21T10:31:55;99743.00;;;16.45;100.00
37764;BME280;23602;51.084;7.090;2023-04-21T10:37:06;99739.19;;;16.14;100.00
37764;BME280;23602;51.084;7.090;2023-04-21T10:39:33;99731.78;;;16.31;100.00
37764;BME280;23602;51.084;7.090;2023-04-21T10:44:50;99731.00;;;16.09;100.00
37764;BME280;23602;51.084;7.090;2023-04-21T10:47:23;99712.22;;;16.03;100.00
37764;BME280;23602;51.084;7.090;2023-04-21T10:49:52;99714.56;;;15.94;100.00
37764;BME280;23602;51.084;7.090;2023-04-21T10:52:18;99712.50;;;15.79;100.00
37764;BME280;23602;51.084;7.090;2023-04-21T10:57:17;99705.78;;;15.60;100.00
37764;BME280;23602;51.084;7.090;2023-04-21T10:59:43;99710.66;;;15.20;100.00
37764;BME280;23602;51.084;7.090;2023-04-21T11:02:12;99708.84;;;14.71;100.00
37764;BME280;23602;51.084;7.090;2023-04-21T11:04:39;99704.16;;;14.83;100.00
37764;BME280;23602;51.084;7.090;2023-04-21T11:07:18;99701.44;;;14.99;100.00
37764;BME280;23602;51.084;7.090;2023-04-21T11:09:45;99701.59;;;14.93;100.00
37764;BME280;23602;51.084;7.090;2023-04-21T11:12:12;99689.16;;;14.92;100.00
37764;BME280;23602;51.084;7.090;2023-04-21T11:14:38;99690.31;;;15.39;100.00
37764;BME280;23602;51.084;7.090;2023-04-21T11:17:04;99687.56;;;15.77;100.00
37764;BME280;23602;51.084;7.090;2023-04-21T11:19:30;99679.69;;;16.03;100.00
37764;BME280;23602;51.084;7.090;2023-04-21T11:21:56;99674.09;;;16.09;100.00
37764;BME280;23602;51.084;7.090;2023-04-21T11:24:21;99668.63;;;16.36;100.00
37764;BME280;23602;51.084;7.090;2023-04-21T11:26:47;99662.72;;;16.44;100.00
37764;BME280;23602;51.084;7.090;2023-04-21T11:29:12;99664.84;;;16.37;100.00
37764;BME280;23602;51.084;7.090;2023-04-21T11:31:40;99665.91;;;16.36;100.00
37764;BME280;23602;51.084;7.090;2023-04-21T11:34:05;99661.03;;;16.38;100.00
37764;BME280;23602;51.084;7.090;2023-04-21T11:36:34;99663.50;;;16.71;100.00
37764;BME280;23602;51.084;7.090;2023-04-21T11:39:06;99651.53;;;16.35;100.00
37764;BME280;23602;51.084;7.090;2023-04-21T11:41:32;99653.44;;;16.40;100.00
37764;BME280;23602;51.084;7.090;2023-04-21T11:44:00;99640.81;;;16.19;100.00
37764;BME280;23602;51.084;7.090;2023-04-21T11:46:26;99644.88;;;16.16;100.00
37764;BME280;23602;51.084;7.090;2023-04-21T11:48:59;99652.13;;;16.11;100.00
37764;BME280;23602;51.084;7.090;2023-04-21T11:51:25;99642.47;;;15.93;100.00
37764;BME280;23602;51.084;7.090;2023-04-21T11:53:52;99637.53;;;15.58;100.00
37764;BME280;23602;51.084;7.090;2023-04-21T11:56:17;99637.72;;;16.05;100.00
37764;BME280;23602;51.084;7.090;2023-04-21T11:58:46;99622.00;;;16.39;100.00
37764;BME280;23602;51.084;7.090;2023-04-21T12:01:14;99619.47;;;16.59;100.00
37764;BME280;23602;51.084;7.090;2023-04-21T12:03:39;99610.94;;;16.51;100.00
37764;BME280;23602;51.084;7.090;2023-04-21T12:06:04;99615.81;;;16.49;100.00
37764;BME280;23602;51.084;7.090;2023-04-21T12:08:31;99618.22;;;16.45;100.00
37764;BME280;23602;51.084;7.090;2023-04-21T12:10:56;99618.34;;;16.23;100.00
37764;BME280;23602;51.084;7.090;2023-04-21T12:13:26;99609.53;;;16.43;100.00
37764;BME280;23602;51.084;7.090;2023-04-21T12:15:51;99613.16;;;16.95;100.00
37764;BME280;23602;51.084;7.090;2023-04-21T12:18:17;99611.13;;;17.28;100.00
37764;BME280;23602;51.084;7.090;2023-04-21T12:20:49;99604.69;;;17.49;100.00
37764;BME280;23602;51.084;7.090;2023-04-21T12:23:15;99603.81;;;17.33;100.00
37764;BME280;23602;51.084;7.090;2023-04-21T12:25:40;99612.91;;;16.97;100.00
37764;BME280;23602;51.084;7.090;2023-04-21T12:28:07;99602.44;;;16.32;100.00
37764;BME280;23602;51.084;7.090;2023-04-21T12:30:32;99604.94;;;16.80;100.00
37764;BME280;23602;51.084;7.090;2023-04-21T12:32:57;99600.78;;;17.20;100.00
37764;BME280;23602;51.084;7.090;2023-04-21T12:35:24;99591.88;;;17.44;100.00
37764;BME280;23602;51.084;7.090;2023-04-21T12:37:52;99582.78;;;17.96;100.00
37764;BME280;23602;51.084;7.090;2023-04-21T12:40:18;99586.59;;;17.80;100.00
37764;BME280;23602;51.084;7.090;2023-04-21T12:42:43;99576.69;;;17.43;100.00
37764;BME280;23602;51.084;7.090;2023-04-21T12:45:09;99589.78;;;16.89;100.00
37764;BME280;23602;51.084;7.090;2023-04-21T12:47:35;99586.94;;;16.64;100.00
37764;BME280;23602;51.084;7.090;2023-04-21T12:50:01;99594.69;;;16.14;100.00
37764;BME280;23602;51.084;7.090;2023-04-21T12:52:29;99590.13;;;16.19;100.00
37764;BME280;23602;51.084;7.090;2023-04-21T12:54:54;99580.34;;;16.18;100.00
37764;BME280;23602;51.084;7.090;2023-04-21T12:57:19;99587.63;;;16.13;100.00
37764;BME280;23602;51.084;7.090;2023-04-21T12:59:45;99586.09;;;16.22;100.00
37764;BME280;23602;51.084;7.090;2023-04-21T13:02:11;99582.16;;;16.39;100.00